sensor_id;sensor_type;location;lat;lon;timestamp;temperature;humidity
20174;DHT22;10246;50.620;7.232;2022-11-02T00:01:20;13.20;1.00
20174;DHT22;10246;50.620;7.232;2022-11-02T00:03:49;13.30;1.00
20174;DHT22;10246;50.620;7.232;2022-11-02T00:06:16;13.30;1.00
20174;DHT22;10246;50.620;7.232;2022-11-02T00:08:43;13.30;1.00
20174;DHT22;10246;50.620;7.232;2022-11-02T00:11:11;13.30;1.00
20174;DHT22;10246;50.620;7.232;2022-11-02T00:13:38;13.30;1.00
20174;DHT22;10246;50.620;7.232;2022-11-02T00:16:07;13.30;1.00
20174;DHT22;10246;50.620;7.232;2022-11-02T00:18:37;13.30;1.00
20174;DHT22;10246;50.620;7.232;2022-11-02T00:21:04;13.40;1.00
20174;DHT22;10246;50.620;7.232;2022-11-02T00:23:31;13.30;1.00
20174;DHT22;10246;50.620;7.232;2022-11-02T00:26:00;13.40;1.00
20174;DHT22;10246;50.620;7.232;2022-11-02T00:28:29;13.40;1.00
20174;DHT22;10246;50.620;7.232;2022-11-02T00:30:55;13.40;1.00
20174;DHT22;10246;50.620;7.232;2022-11-02T00:33:23;13.40;1.00
20174;DHT22;10246;50.620;7.232;2022-11-02T00:35:49;13.40;1.00
20174;DHT22;10246;50.620;7.232;2022-11-02T00:38:16;13.40;1.00
20174;DHT22;10246;50.620;7.232;2022-11-02T00:40:43;13.40;1.00
20174;DHT22;10246;50.620;7.232;2022-11-02T00:43:10;13.50;1.00
20174;DHT22;10246;50.620;7.232;2022-11-02T00:45:38;13.40;1.00
20174;DHT22;10246;50.620;7.232;2022-11-02T00:48:05;13.50;1.00
20174;DHT22;10246;50.620;7.232;2022-11-02T00:50:32;13.60;1.00
20174;DHT22;10246;50.620;7.232;2022-11-02T00:53:00;13.60;1.00
20174;DHT22;10246;50.620;7.232;2022-11-02T00:55:27;13.70;1.00
20174;DHT22;10246;50.620;7.232;2022-11-02T00:57:54;13.60;1.00
20174;DHT22;10246;50.620;7.232;2022-11-02T01:00:20;13.60;1.00
20174;DHT22;10246;50.620;7.232;2022-11-02T01:02:48;13.70;1.00
20174;DHT22;10246;50.620;7.232;2022-11-02T01:05:15;13.70;1.00
20174;DHT22;10246;50.620;7.232;2022-11-02T01:07:42;13.70;1.00
20174;DHT22;10246;50.620;7.232;2022-11-02T01:10:10;13.70;1.00
20174;DHT22;10246;50.620;7.232;2022-11-02T01:12:37;13.60;1.00
20174;DHT22;10246;50.620;7.232;2022-11-02T01:15:06;13.60;1.00
20174;DHT22;10246;50.620;7.232;2022-11-02T01:17:34;13.60;1.00
20174;DHT22;10246;50.620;7.232;2022-11-02T01:20:03;13.60;1.00
20174;DHT22;10246;50.620;7.232;2022-11-02T01:22:31;13.60;1.00
20174;DHT22;10246;50.620;7.232;2022-11-02T01:24:58;13.60;1.00
20174;DHT22;10246;50.620;7.232;2022-11-02T01:27:24;13.60;1.00
20174;DHT22;10246;50.620;7.232;2022-11-02T01:29:51;13.60;1.00
20174;DHT22;10246;50.620;7.232;2022-11-02T01:32:18;13.70;1.00
20174;DHT22;10246;50.620;7.232;2022-11-02T01:34:44;13.70;1.00
20174;DHT22;10246;50.620;7.232;2022-11-02T01:37:12;13.70;1.00
20174;DHT22;10246;50.620;7.232;2022-11-02T01:39:39;13.70;1.00
20174;DHT22;10246;50.620;7.232;2022-11-02T01:42:16;13.70;1.00
20174;DHT22;10246;50.620;7.232;2022-11-02T01:44:43;13.70;1.00
20174;DHT22;10246;50.620;7.232;2022-11-02T01:47:13;13.70;1.00
20174;DHT22;10246;50.620;7.232;2022-11-02T01:49:45;13.70;1.00
20174;DHT22;10246;50.620;7.232;2022-11-02T01:52:16;13.70;1.00
20174;DHT22;10246;50.620;7.232;2022-11-02T01:54:48;13.70;1.00
20174;DHT22;10246;50.620;7.232;2022-11-02T01:57:19;13.80;1.00
20174;DHT22;10246;50.620;7.232;2022-11-02T01:59:50;13.80;1.00
20174;DHT22;10246;50.620;7.232;2022-11-02T02:02:21;13.90;1.00
20174;DHT22;10246;50.620;7.232;2022-11-02T02:04:51;13.90;1.00
20174;DHT22;10246;50.620;7.232;2022-11-02T02:07:21;13.90;1.00
20174;DHT22;10246;50.620;7.232;2022-11-02T02:09:50;13.90;1.00
20174;DHT22;10246;50.620;7.232;2022-11-02T02:12:19;13.90;1.00
20174;DHT22;10246;50.620;7.232;2022-11-02T02:14:46;14.00;1.00
20174;DHT22;10246;50.620;7.232;2022-11-02T02:17:22;14.00;1.00
20174;DHT22;10246;50.620;7.232;2022-11-02T02:19:57;14.00;1.00
20174;DHT22;10246;50.620;7.232;2022-11-02T02:23:04;13.90;1.00
20174;DHT22;10246;50.620;7.232;2022-11-02T02:28:47;13.90;1.00
20174;DHT22;10246;50.620;7.232;2022-11-02T02:31:18;13.80;1.00
20174;DHT22;10246;50.620;7.232;2022-11-02T02:33:49;13.80;1.00
20174;DHT22;10246;50.620;7.232;2022-11-02T02:36:21;13.80;1.00
20174;DHT22;10246;50.620;7.232;2022-11-02T02:38:57;13.80;1.00
20174;DHT22;10246;50.620;7.232;2022-11-02T02:41:35;13.80;1.00
20174;DHT22;10246;50.620;7.232;2022-11-02T02:44:06;13.80;1.00
20174;DHT22;10246;50.620;7.232;2022-11-02T02:46:36;13.80;1.00
20174;DHT22;10246;50.620;7.232;2022-11-02T02:49:10;13.80;1.00
20174;DHT22;10246;50.620;7.232;2022-11-02T02:51:39;13.70;1.00
20174;DHT22;10246;50.620;7.232;2022-11-02T02:54:11;13.70;1.00
20174;DHT22;10246;50.620;7.232;2022-11-02T02:56:41;13.70;1.00
20174;DHT22;10246;50.620;7.232;2022-11-02T02:59:17;13.70;1.00
20174;DHT22;10246;50.620;7.232;2022-11-02T03:01:46;13.70;1.00
20174;DHT22;10246;50.620;7.232;2022-11-02T03:04:14;13.70;1.00
20174;DHT22;10246;50.620;7.232;2022-11-02T03:06:43;13.70;1.00
20174;DHT22;10246;50.620;7.232;2022-11-02T03:09:22;13.60;1.00
20174;DHT22;10246;50.620;7.232;2022-11-02T03:12:00;13.60;1.00
20174;DHT22;10246;50.620;7.232;2022-11-02T03:14:36;13.60;1.00
20174;DHT22;10246;50.620;7.232;2022-11-02T03:17:14;13.60;1.00
20174;DHT22;10246;50.620;7.232;2022-11-02T03:19:49;13.60;1.00
20174;DHT22;10246;50.620;7.232;2022-11-02T03:22:25;13.70;1.00
20174;DHT22;10246;50.620;7.232;2022-11-02T03:24:58;13.60;1.00
20174;DHT22;10246;50.620;7.232;2022-11-02T03:27:34;13.60;1.00
20174;DHT22;10246;50.620;7.232;2022-11-02T03:30:07;13.70;1.00
20174;DHT22;10246;50.620;7.232;2022-11-02T03:32:39;13.70;1.00
20174;DHT22;10246;50.620;7.232;2022-11-02T03:35:11;13.60;1.00
20174;DHT22;10246;50.620;7.232;2022-11-02T03:37:45;13.60;1.00
20174;DHT22;10246;50.620;7.232;2022-11-02T03:40:18;13.60;1.00
20174;DHT22;10246;50.620;7.232;2022-11-02T03:42:47;13.60;1.00
20174;DHT22;10246;50.620;7.232;2022-11-02T03:45:18;13.60;1.00
20174;DHT22;10246;50.620;7.232;2022-11-02T03:47:48;13.60;1.00
20174;DHT22;10246;50.620;7.232;2022-11-02T03:50:19;13.50;1.00
20174;DHT22;10246;50.620;7.232;2022-11-02T03:52:57;13.60;1.00
20174;DHT22;10246;50.620;7.232;2022-11-02T03:55:29;13.50;1.00
20174;DHT22;10246;50.620;7.232;2022-11-02T03:57:58;13.50;1.00
20174;DHT22;10246;50.620;7.232;2022-11-02T04:00:31;13.50;1.00
20174;DHT22;10246;50.620;7.232;2022-11-02T04:02:59;13.60;1.00
20174;DHT22;10246;50.620;7.232;2022-11-02T04:05:29;13.50;1.00
20174;DHT22;10246;50.620;7.232;2022-11-02T04:07:57;13.50;1.00
20174;DHT22;10246;50.620;7.232;2022-11-02T04:10:42;13.50;1.00
20174;DHT22;10246;50.620;7.232;2022-11-02T04:13:23;13.50;1.00
20174;DHT22;10246;50.620;7.232;2022-11-02T04:16:09;13.50;1.00
20174;DHT22;10246;50.620;7.232;2022-11-02T04:18:35;13.50;1.00
20174;DHT22;10246;50.620;7.232;2022-11-02T04:21:20;13.50;1.00
20174;DHT22;10246;50.620;7.232;2022-11-02T04:23:46;13.50;1.00
20174;DHT22;10246;50.620;7.232;2022-11-02T04:26:30;13.50;1.00
20174;DHT22;10246;50.620;7.232;2022-11-02T04:28:57;13.40;1.00
20174;DHT22;10246;50.620;7.232;2022-11-02T04:31:25;13.40;1.00
20174;DHT22;10246;50.620;7.232;2022-11-02T04:33:51;13.40;1.00
20174;DHT22;10246;50.620;7.232;2022-11-02T04:36:17;13.40;1.00
20174;DHT22;10246;50.620;7.232;2022-11-02T04:38:44;13.30;1.00
20174;DHT22;10246;50.620;7.232;2022-11-02T04:41:11;13.40;1.00
20174;DHT22;10246;50.620;7.232;2022-11-02T04:43:55;13.30;1.00
20174;DHT22;10246;50.620;7.232;2022-11-02T04:46:25;13.40;1.00
20174;DHT22;10246;50.620;7.232;2022-11-02T04:48:52;13.40;1.00
20174;DHT22;10246;50.620;7.232;2022-11-02T04:51:20;13.30;1.00
20174;DHT22;10246;50.620;7.232;2022-11-02T04:53:47;13.30;1.00
20174;DHT22;10246;50.620;7.232;2022-11-02T04:56:15;13.30;1.00
20174;DHT22;10246;50.620;7.232;2022-11-02T04:58:41;13.30;1.00
20174;DHT22;10246;50.620;7.232;2022-11-02T05:01:12;13.30;1.00
20174;DHT22;10246;50.620;7.232;2022-11-02T05:03:41;13.30;1.00
20174;DHT22;10246;50.620;7.232;2022-11-02T05:06:09;13.30;1.00
20174;DHT22;10246;50.620;7.232;2022-11-02T05:08:36;13.30;1.00
20174;DHT22;10246;50.620;7.232;2022-11-02T05:11:03;13.20;1.00
20174;DHT22;10246;50.620;7.232;2022-11-02T05:13:30;13.20;1.00
20174;DHT22;10246;50.620;7.232;2022-11-02T05:15:58;13.20;1.00
20174;DHT22;10246;50.620;7.232;2022-11-02T05:18:26;13.10;1.00
20174;DHT22;10246;50.620;7.232;2022-11-02T05:20:57;13.10;1.00
20174;DHT22;10246;50.620;7.232;2022-11-02T05:23:24;13.10;1.00
20174;DHT22;10246;50.620;7.232;2022-11-02T05:25:54;13.00;1.00
20174;DHT22;10246;50.620;7.232;2022-11-02T05:28:21;13.00;1.00
20174;DHT22;10246;50.620;7.232;2022-11-02T05:30:48;13.10;1.00
20174;DHT22;10246;50.620;7.232;2022-11-02T05:33:15;13.10;1.00
20174;DHT22;10246;50.620;7.232;2022-11-02T05:35:42;13.10;1.00
20174;DHT22;10246;50.620;7.232;2022-11-02T05:38:11;13.10;1.00
20174;DHT22;10246;50.620;7.232;2022-11-02T05:40:38;13.10;1.00
20174;DHT22;10246;50.620;7.232;2022-11-02T05:43:07;13.10;1.00
20174;DHT22;10246;50.620;7.232;2022-11-02T05:45:34;13.10;1.00
20174;DHT22;10246;50.620;7.232;2022-11-02T05:48:03;13.10;1.00
20174;DHT22;10246;50.620;7.232;2022-11-02T05:50:31;13.10;1.00
20174;DHT22;10246;50.620;7.232;2022-11-02T05:52:58;13.10;1.00
20174;DHT22;10246;50.620;7.232;2022-11-02T05:55:26;13.00;1.00
20174;DHT22;10246;50.620;7.232;2022-11-02T05:57:54;13.00;1.00
20174;DHT22;10246;50.620;7.232;2022-11-02T06:00:21;13.00;1.00
20174;DHT22;10246;50.620;7.232;2022-11-02T06:02:52;12.90;1.00
20174;DHT22;10246;50.620;7.232;2022-11-02T06:05:20;13.00;1.00
20174;DHT22;10246;50.620;7.232;2022-11-02T06:07:47;13.00;1.00
20174;DHT22;10246;50.620;7.232;2022-11-02T06:10:14;13.00;1.00
20174;DHT22;10246;50.620;7.232;2022-11-02T06:12:42;12.90;1.00
20174;DHT22;10246;50.620;7.232;2022-11-02T06:15:09;13.00;1.00
20174;DHT22;10246;50.620;7.232;2022-11-02T06:17:38;12.90;1.00
20174;DHT22;10246;50.620;7.232;2022-11-02T06:20:06;12.90;1.00
20174;DHT22;10246;50.620;7.232;2022-11-02T06:22:38;12.90;1.00
20174;DHT22;10246;50.620;7.232;2022-11-02T06:25:06;12.80;1.00
20174;DHT22;10246;50.620;7.232;2022-11-02T06:27:33;12.80;1.00
20174;DHT22;10246;50.620;7.232;2022-11-02T06:30:03;12.80;1.00
20174;DHT22;10246;50.620;7.232;2022-11-02T06:32:31;12.80;1.00
20174;DHT22;10246;50.620;7.232;2022-11-02T06:34:57;12.90;1.00
20174;DHT22;10246;50.620;7.232;2022-11-02T06:37:24;12.90;1.00
20174;DHT22;10246;50.620;7.232;2022-11-02T06:39:51;12.90;1.00
20174;DHT22;10246;50.620;7.232;2022-11-02T06:42:18;12.80;1.00
20174;DHT22;10246;50.620;7.232;2022-11-02T06:44:44;12.80;1.00
20174;DHT22;10246;50.620;7.232;2022-11-02T06:47:12;12.80;1.00
20174;DHT22;10246;50.620;7.232;2022-11-02T06:49:39;12.80;1.00
20174;DHT22;10246;50.620;7.232;2022-11-02T06:52:06;12.80;1.00
20174;DHT22;10246;50.620;7.232;2022-11-02T06:54:33;12.80;1.00
20174;DHT22;10246;50.620;7.232;2022-11-02T06:56:59;12.90;1.00
20174;DHT22;10246;50.620;7.232;2022-11-02T06:59:26;12.90;1.00
20174;DHT22;10246;50.620;7.232;2022-11-02T07:01:53;12.90;1.00
20174;DHT22;10246;50.620;7.232;2022-11-02T07:04:21;12.80;1.00
20174;DHT22;10246;50.620;7.232;2022-11-02T07:06:48;12.80;1.00
20174;DHT22;10246;50.620;7.232;2022-11-02T07:09:15;12.80;1.00
20174;DHT22;10246;50.620;7.232;2022-11-02T07:11:41;12.80;1.00
20174;DHT22;10246;50.620;7.232;2022-11-02T07:14:08;12.80;1.00
20174;DHT22;10246;50.620;7.232;2022-11-02T07:16:35;12.80;1.00
20174;DHT22;10246;50.620;7.232;2022-11-02T07:19:02;12.90;1.00
20174;DHT22;10246;50.620;7.232;2022-11-02T07:21:30;12.90;1.00
20174;DHT22;10246;50.620;7.232;2022-11-02T07:23:57;12.90;1.00
20174;DHT22;10246;50.620;7.232;2022-11-02T07:26:24;12.90;1.00
20174;DHT22;10246;50.620;7.232;2022-11-02T07:28:52;12.90;1.00
20174;DHT22;10246;50.620;7.232;2022-11-02T07:31:19;12.90;1.00
20174;DHT22;10246;50.620;7.232;2022-11-02T07:33:46;12.90;1.00
20174;DHT22;10246;50.620;7.232;2022-11-02T07:36:13;12.90;1.00
20174;DHT22;10246;50.620;7.232;2022-11-02T07:38:41;12.90;1.00
20174;DHT22;10246;50.620;7.232;2022-11-02T07:41:08;13.00;1.00
20174;DHT22;10246;50.620;7.232;2022-11-02T07:43:34;13.00;1.00
20174;DHT22;10246;50.620;7.232;2022-11-02T07:46:02;13.00;1.00
20174;DHT22;10246;50.620;7.232;2022-11-02T07:48:30;13.00;1.00
20174;DHT22;10246;50.620;7.232;2022-11-02T07:50:57;13.00;1.00
20174;DHT22;10246;50.620;7.232;2022-11-02T07:53:24;13.00;1.00
20174;DHT22;10246;50.620;7.232;2022-11-02T07:55:52;13.00;1.00
20174;DHT22;10246;50.620;7.232;2022-11-02T07:58:19;13.10;1.00
20174;DHT22;10246;50.620;7.232;2022-11-02T08:00:46;13.10;1.00
20174;DHT22;10246;50.620;7.232;2022-11-02T08:03:14;13.10;1.00
20174;DHT22;10246;50.620;7.232;2022-11-02T08:05:41;13.20;1.00
20174;DHT22;10246;50.620;7.232;2022-11-02T08:08:10;13.20;1.00
20174;DHT22;10246;50.620;7.232;2022-11-02T08:10:37;13.20;1.00
20174;DHT22;10246;50.620;7.232;2022-11-02T08:13:07;13.30;1.00
20174;DHT22;10246;50.620;7.232;2022-11-02T08:15:34;13.30;1.00
20174;DHT22;10246;50.620;7.232;2022-11-02T08:18:01;13.30;1.00
20174;DHT22;10246;50.620;7.232;2022-11-02T08:20:29;13.30;1.00
20174;DHT22;10246;50.620;7.232;2022-11-02T08:22:56;13.40;1.00
20174;DHT22;10246;50.620;7.232;2022-11-02T08:25:23;13.40;1.00
20174;DHT22;10246;50.620;7.232;2022-11-02T08:27:50;13.50;1.00
20174;DHT22;10246;50.620;7.232;2022-11-02T08:30:18;13.50;1.00
20174;DHT22;10246;50.620;7.232;2022-11-02T08:32:45;13.50;1.00
20174;DHT22;10246;50.620;7.232;2022-11-02T08:35:13;13.60;1.00
20174;DHT22;10246;50.620;7.232;2022-11-02T08:37:39;13.70;1.00
20174;DHT22;10246;50.620;7.232;2022-11-02T08:40:07;13.70;1.00
20174;DHT22;10246;50.620;7.232;2022-11-02T08:42:34;13.70;1.00
20174;DHT22;10246;50.620;7.232;2022-11-02T08:45:04;13.80;1.00
20174;DHT22;10246;50.620;7.232;2022-11-02T08:47:36;13.90;1.00
20174;DHT22;10246;50.620;7.232;2022-11-02T08:50:06;14.00;1.00
20174;DHT22;10246;50.620;7.232;2022-11-02T08:52:34;14.10;1.00
20174;DHT22;10246;50.620;7.232;2022-11-02T08:55:01;14.20;1.00
20174;DHT22;10246;50.620;7.232;2022-11-02T08:57:28;14.20;1.00
20174;DHT22;10246;50.620;7.232;2022-11-02T08:59:55;14.30;1.00
20174;DHT22;10246;50.620;7.232;2022-11-02T09:02:21;14.50;1.00
20174;DHT22;10246;50.620;7.232;2022-11-02T09:04:49;14.60;1.00
20174;DHT22;10246;50.620;7.232;2022-11-02T09:07:16;14.70;1.00
20174;DHT22;10246;50.620;7.232;2022-11-02T09:09:43;14.90;1.00
20174;DHT22;10246;50.620;7.232;2022-11-02T09:12:10;15.00;1.00
20174;DHT22;10246;50.620;7.232;2022-11-02T09:14:36;15.10;1.00
20174;DHT22;10246;50.620;7.232;2022-11-02T09:17:04;15.10;1.00
20174;DHT22;10246;50.620;7.232;2022-11-02T09:19:31;15.00;1.00
20174;DHT22;10246;50.620;7.232;2022-11-02T09:21:59;14.90;1.00
20174;DHT22;10246;50.620;7.232;2022-11-02T09:24:25;15.00;1.00
20174;DHT22;10246;50.620;7.232;2022-11-02T09:26:52;15.00;1.00
20174;DHT22;10246;50.620;7.232;2022-11-02T09:29:19;15.00;1.00
20174;DHT22;10246;50.620;7.232;2022-11-02T09:31:46;15.10;1.00
20174;DHT22;10246;50.620;7.232;2022-11-02T09:34:13;15.10;1.00
20174;DHT22;10246;50.620;7.232;2022-11-02T09:36:40;15.20;1.00
20174;DHT22;10246;50.620;7.232;2022-11-02T09:39:08;15.30;1.00
20174;DHT22;10246;50.620;7.232;2022-11-02T09:41:39;15.40;1.00
20174;DHT22;10246;50.620;7.232;2022-11-02T09:44:11;15.40;1.00
20174;DHT22;10246;50.620;7.232;2022-11-02T09:46:41;15.30;1.00
20174;DHT22;10246;50.620;7.232;2022-11-02T09:49:11;15.30;1.00
20174;DHT22;10246;50.620;7.232;2022-11-02T09:51:41;15.40;1.00
20174;DHT22;10246;50.620;7.232;2022-11-02T09:54:15;15.50;1.00
20174;DHT22;10246;50.620;7.232;2022-11-02T09:56:45;15.60;1.00
20174;DHT22;10246;50.620;7.232;2022-11-02T09:59:14;15.70;1.00
20174;DHT22;10246;50.620;7.232;2022-11-02T10:01:54;15.80;1.00
20174;DHT22;10246;50.620;7.232;2022-11-02T10:04:34;15.90;1.00
20174;DHT22;10246;50.620;7.232;2022-11-02T10:07:11;16.00;1.00
20174;DHT22;10246;50.620;7.232;2022-11-02T10:09:46;16.10;1.00
20174;DHT22;10246;50.620;7.232;2022-11-02T10:12:24;16.10;1.00
20174;DHT22;10246;50.620;7.232;2022-11-02T10:14:58;16.30;1.00
20174;DHT22;10246;50.620;7.232;2022-11-02T10:17:29;16.40;1.00
20174;DHT22;10246;50.620;7.232;2022-11-02T10:19:58;16.50;1.00
20174;DHT22;10246;50.620;7.232;2022-11-02T10:22:27;16.60;1.00
20174;DHT22;10246;50.620;7.232;2022-11-02T10:24:59;16.50;1.00
20174;DHT22;10246;50.620;7.232;2022-11-02T10:27:32;16.60;1.00
20174;DHT22;10246;50.620;7.232;2022-11-02T10:30:03;16.40;1.00
20174;DHT22;10246;50.620;7.232;2022-11-02T10:32:31;16.20;1.00
20174;DHT22;10246;50.620;7.232;2022-11-02T10:34:59;16.20;1.00
20174;DHT22;10246;50.620;7.232;2022-11-02T10:37:38;16.40;1.00
20174;DHT22;10246;50.620;7.232;2022-11-02T10:40:19;16.50;1.00
20174;DHT22;10246;50.620;7.232;2022-11-02T10:42:58;16.60;1.00
20174;DHT22;10246;50.620;7.232;2022-11-02T10:45:45;16.60;1.00
20174;DHT22;10246;50.620;7.232;2022-11-02T10:48:25;16.40;1.00
20174;DHT22;10246;50.620;7.232;2022-11-02T10:50:59;16.30;1.00
20174;DHT22;10246;50.620;7.232;2022-11-02T10:53:33;16.30;1.00
20174;DHT22;10246;50.620;7.232;2022-11-02T10:56:06;16.30;1.00
20174;DHT22;10246;50.620;7.232;2022-11-02T10:58:39;16.40;1.00
20174;DHT22;10246;50.620;7.232;2022-11-02T11:01:07;16.40;1.00
20174;DHT22;10246;50.620;7.232;2022-11-02T11:03:52;16.50;1.00
20174;DHT22;10246;50.620;7.232;2022-11-02T11:06:19;16.60;1.00
20174;DHT22;10246;50.620;7.232;2022-11-02T11:08:47;16.80;1.00
20174;DHT22;10246;50.620;7.232;2022-11-02T11:11:21;16.80;1.00
20174;DHT22;10246;50.620;7.232;2022-11-02T11:13:54;16.90;1.00
20174;DHT22;10246;50.620;7.232;2022-11-02T11:16:36;16.80;1.00
20174;DHT22;10246;50.620;7.232;2022-11-02T11:19:06;16.70;1.00
20174;DHT22;10246;50.620;7.232;2022-11-02T11:21:42;16.60;1.00
20174;DHT22;10246;50.620;7.232;2022-11-02T11:24:27;16.50;1.00
20174;DHT22;10246;50.620;7.232;2022-11-02T11:27:01;16.70;1.00
20174;DHT22;10246;50.620;7.232;2022-11-02T11:29:30;16.80;1.00
20174;DHT22;10246;50.620;7.232;2022-11-02T11:31:57;16.80;1.00
20174;DHT22;10246;50.620;7.232;2022-11-02T11:34:27;16.90;1.00
20174;DHT22;10246;50.620;7.232;2022-11-02T11:37:04;16.90;1.00
20174;DHT22;10246;50.620;7.232;2022-11-02T11:39:31;17.10;1.00
20174;DHT22;10246;50.620;7.232;2022-11-02T11:42:01;17.30;1.00
20174;DHT22;10246;50.620;7.232;2022-11-02T11:44:29;17.40;1.00
20174;DHT22;10246;50.620;7.232;2022-11-02T11:46:57;17.40;1.00
20174;DHT22;10246;50.620;7.232;2022-11-02T11:49:27;17.50;1.00
20174;DHT22;10246;50.620;7.232;2022-11-02T11:51:56;17.50;1.00
20174;DHT22;10246;50.620;7.232;2022-11-02T11:54:25;17.60;1.00
20174;DHT22;10246;50.620;7.232;2022-11-02T11:56:54;17.70;1.00
20174;DHT22;10246;50.620;7.232;2022-11-02T11:59:28;17.50;1.00
20174;DHT22;10246;50.620;7.232;2022-11-02T12:01:57;17.40;1.00
20174;DHT22;10246;50.620;7.232;2022-11-02T12:04:30;17.30;1.00
20174;DHT22;10246;50.620;7.232;2022-11-02T12:07:21;17.40;1.00
20174;DHT22;10246;50.620;7.232;2022-11-02T12:10:00;17.40;1.00
20174;DHT22;10246;50.620;7.232;2022-11-02T12:12:40;17.40;1.00
20174;DHT22;10246;50.620;7.232;2022-11-02T12:15:23;17.40;1.00
20174;DHT22;10246;50.620;7.232;2022-11-02T12:18:05;17.40;1.00
20174;DHT22;10246;50.620;7.232;2022-11-02T12:20:53;17.50;1.00
20174;DHT22;10246;50.620;7.232;2022-11-02T12:23:39;17.50;1.00
20174;DHT22;10246;50.620;7.232;2022-11-02T12:26:19;17.70;1.00
20174;DHT22;10246;50.620;7.232;2022-11-02T12:28:57;17.80;1.00
20174;DHT22;10246;50.620;7.232;2022-11-02T12:31:34;18.00;1.00
20174;DHT22;10246;50.620;7.232;2022-11-02T12:34:27;18.20;1.00
20174;DHT22;10246;50.620;7.232;2022-11-02T12:37:05;18.30;1.00
20174;DHT22;10246;50.620;7.232;2022-11-02T12:39:46;18.30;1.00
20174;DHT22;10246;50.620;7.232;2022-11-02T12:42:25;18.00;1.00
20174;DHT22;10246;50.620;7.232;2022-11-02T12:45:05;17.70;1.00
20174;DHT22;10246;50.620;7.232;2022-11-02T12:47:51;17.60;1.00
20174;DHT22;10246;50.620;7.232;2022-11-02T12:50:28;17.50;1.00
20174;DHT22;10246;50.620;7.232;2022-11-02T12:53:05;17.40;1.00
20174;DHT22;10246;50.620;7.232;2022-11-02T12:55:38;17.30;1.00
20174;DHT22;10246;50.620;7.232;2022-11-02T12:58:14;17.50;1.00
20174;DHT22;10246;50.620;7.232;2022-11-02T13:00:44;17.70;1.00
20174;DHT22;10246;50.620;7.232;2022-11-02T13:03:25;17.90;1.00
20174;DHT22;10246;50.620;7.232;2022-11-02T13:05:57;18.00;1.00
20174;DHT22;10246;50.620;7.232;2022-11-02T13:08:35;18.10;1.00
20174;DHT22;10246;50.620;7.232;2022-11-02T13:11:07;18.20;1.00
20174;DHT22;10246;50.620;7.232;2022-11-02T13:13:41;18.40;1.00
20174;DHT22;10246;50.620;7.232;2022-11-02T13:16:09;18.30;1.00
20174;DHT22;10246;50.620;7.232;2022-11-02T13:18:43;18.30;1.00
20174;DHT22;10246;50.620;7.232;2022-11-02T13:21:14;18.30;1.00
20174;DHT22;10246;50.620;7.232;2022-11-02T13:23:44;18.30;1.00
20174;DHT22;10246;50.620;7.232;2022-11-02T13:26:22;18.20;1.00
20174;DHT22;10246;50.620;7.232;2022-11-02T13:28:52;18.00;1.00
20174;DHT22;10246;50.620;7.232;2022-11-02T13:31:26;17.90;1.00
20174;DHT22;10246;50.620;7.232;2022-11-02T13:33:59;17.90;1.00
20174;DHT22;10246;50.620;7.232;2022-11-02T13:36:26;18.00;1.00
20174;DHT22;10246;50.620;7.232;2022-11-02T13:38:57;18.10;1.00
20174;DHT22;10246;50.620;7.232;2022-11-02T13:41:49;18.00;1.00
20174;DHT22;10246;50.620;7.232;2022-11-02T13:44:35;17.90;1.00
20174;DHT22;10246;50.620;7.232;2022-11-02T13:47:16;17.90;1.00
20174;DHT22;10246;50.620;7.232;2022-11-02T13:49:51;17.90;1.00
20174;DHT22;10246;50.620;7.232;2022-11-02T13:52:23;18.00;1.00
20174;DHT22;10246;50.620;7.232;2022-11-02T13:54:54;17.90;1.00
20174;DHT22;10246;50.620;7.232;2022-11-02T13:57:31;18.00;1.00
20174;DHT22;10246;50.620;7.232;2022-11-02T14:00:02;17.90;1.00
20174;DHT22;10246;50.620;7.232;2022-11-02T14:02:33;17.90;1.00
20174;DHT22;10246;50.620;7.232;2022-11-02T14:05:03;18.00;1.00
20174;DHT22;10246;50.620;7.232;2022-11-02T14:07:34;18.00;1.00
20174;DHT22;10246;50.620;7.232;2022-11-02T14:10:07;18.00;1.00
20174;DHT22;10246;50.620;7.232;2022-11-02T14:12:40;17.90;1.00
20174;DHT22;10246;50.620;7.232;2022-11-02T14:18:29;17.80;1.00
20174;DHT22;10246;50.620;7.232;2022-11-02T14:20:58;17.70;1.00
20174;DHT22;10246;50.620;7.232;2022-11-02T14:23:45;17.60;1.00
20174;DHT22;10246;50.620;7.232;2022-11-02T14:26:32;17.40;1.00
20174;DHT22;10246;50.620;7.232;2022-11-02T14:29:04;17.30;1.00
20174;DHT22;10246;50.620;7.232;2022-11-02T14:32:00;17.20;1.00
20174;DHT22;10246;50.620;7.232;2022-11-02T14:34:41;17.00;1.00
20174;DHT22;10246;50.620;7.232;2022-11-02T14:40:17;16.90;1.00
20174;DHT22;10246;50.620;7.232;2022-11-02T14:43:09;16.90;1.00
20174;DHT22;10246;50.620;7.232;2022-11-02T14:45:51;16.90;1.00
20174;DHT22;10246;50.620;7.232;2022-11-02T14:48:24;17.00;1.00
20174;DHT22;10246;50.620;7.232;2022-11-02T14:51:01;16.90;1.00
20174;DHT22;10246;50.620;7.232;2022-11-02T14:53:31;16.90;1.00
20174;DHT22;10246;50.620;7.232;2022-11-02T14:55:59;16.70;1.00
20174;DHT22;10246;50.620;7.232;2022-11-02T14:58:31;16.60;1.00
20174;DHT22;10246;50.620;7.232;2022-11-02T15:00:59;16.60;1.00
20174;DHT22;10246;50.620;7.232;2022-11-02T15:03:32;16.60;1.00
20174;DHT22;10246;50.620;7.232;2022-11-02T15:06:03;16.50;1.00
20174;DHT22;10246;50.620;7.232;2022-11-02T15:08:33;16.50;1.00
20174;DHT22;10246;50.620;7.232;2022-11-02T15:14:00;16.30;1.00
20174;DHT22;10246;50.620;7.232;2022-11-02T15:16:38;16.20;1.00
20174;DHT22;10246;50.620;7.232;2022-11-02T15:19:39;16.20;1.00
20174;DHT22;10246;50.620;7.232;2022-11-02T15:22:34;16.10;1.00
20174;DHT22;10246;50.620;7.232;2022-11-02T15:25:05;16.10;1.00
20174;DHT22;10246;50.620;7.232;2022-11-02T15:27:37;16.00;1.00
20174;DHT22;10246;50.620;7.232;2022-11-02T15:30:06;15.90;1.00
20174;DHT22;10246;50.620;7.232;2022-11-02T15:32:41;15.80;1.00
20174;DHT22;10246;50.620;7.232;2022-11-02T15:35:16;15.70;1.00
20174;DHT22;10246;50.620;7.232;2022-11-02T15:37:46;15.60;1.00
20174;DHT22;10246;50.620;7.232;2022-11-02T15:40:20;15.60;1.00
20174;DHT22;10246;50.620;7.232;2022-11-02T15:42:56;15.50;1.00
20174;DHT22;10246;50.620;7.232;2022-11-02T15:45:35;15.40;1.00
20174;DHT22;10246;50.620;7.232;2022-11-02T15:48:16;15.30;1.00
20174;DHT22;10246;50.620;7.232;2022-11-02T15:50:54;15.20;1.00
20174;DHT22;10246;50.620;7.232;2022-11-02T15:53:36;15.10;1.00
20174;DHT22;10246;50.620;7.232;2022-11-02T15:56:16;15.10;1.00
20174;DHT22;10246;50.620;7.232;2022-11-02T15:59:20;15.00;1.00
20174;DHT22;10246;50.620;7.232;2022-11-02T16:02:14;15.00;1.00
20174;DHT22;10246;50.620;7.232;2022-11-02T16:04:44;14.90;1.00
20174;DHT22;10246;50.620;7.232;2022-11-02T16:07:14;14.90;1.00
20174;DHT22;10246;50.620;7.232;2022-11-02T16:09:42;14.90;1.00
20174;DHT22;10246;50.620;7.232;2022-11-02T16:12:11;14.80;1.00
20174;DHT22;10246;50.620;7.232;2022-11-02T16:14:39;14.80;1.00
20174;DHT22;10246;50.620;7.232;2022-11-02T16:17:17;14.80;1.00
20174;DHT22;10246;50.620;7.232;2022-11-02T16:19:44;14.70;1.00
20174;DHT22;10246;50.620;7.232;2022-11-02T16:22:22;14.60;1.00
20174;DHT22;10246;50.620;7.232;2022-11-02T16:24:50;14.60;1.00